UAL17 EGLL-KEWR
Flight info
| Callsign | UAL17 |
|---|---|
| Flight time | 1h 32m |
| Altitude | 36000 |
| Route | CPT L9 BUCGO DCT FELCA DCT OFSOX DCT SLANY DCT KURUM DCT INRAD DCT TOBOR/M084F380 NATG ALLRY/N0487F380 N468A TUSKY Q475 COPLY DCT BOS DCT NELIE FLOSI4 |
| Aircraft | B789/H-SDE1E2E3FGHIJ2J3J4J5M1RWXY/LB1D1 |
Departure
| Time | 2026-04-23 10:22 |
|---|---|
| Airport | London Heathrow Airport (EGLL) |
Arrival
| Time | 2026-04-23 11:55 |
|---|---|
| Airport | Newark Liberty International Airport (KEWR) |
| Time | Latitude | Longitude | Altitude | Speed | Heading |
|---|---|---|---|---|---|
| 2026-04-23 09:41 | 51.47416 | -0.44200 | 94 ft | 0 kts | 270° |
| 2026-04-23 09:42 | 51.47416 | -0.44199 | 94 ft | 0 kts | 270° |
| 2026-04-23 09:49 | 51.47416 | -0.44198 | 94 ft | 0 kts | 270° |
| 2026-04-23 09:57 | 51.47416 | -0.44197 | 92 ft | 0 kts | 270° |
| 2026-04-23 10:01 | 51.47416 | -0.44163 | 116 ft | 3 kts | 274° |
| 2026-04-23 10:01 | 51.47411 | -0.44132 | 92 ft | 1 kts | 302° |
| 2026-04-23 10:01 | 51.47402 | -0.44101 | 92 ft | 3 kts | 272° |
| 2026-04-23 10:02 | 51.47407 | -0.44072 | 91 ft | 3 kts | 213° |
| 2026-04-23 10:02 | 51.47428 | -0.44062 | 92 ft | 3 kts | 180° |
| 2026-04-23 10:02 | 51.47432 | -0.44062 | 92 ft | 0 kts | 180° |
| 2026-04-23 10:10 | 51.47427 | -0.44062 | 92 ft | 1 kts | 180° |
| 2026-04-23 10:10 | 51.47415 | -0.44062 | 95 ft | 2 kts | 180° |
| 2026-04-23 10:10 | 51.47394 | -0.44062 | 95 ft | 4 kts | 180° |
| 2026-04-23 10:11 | 51.47363 | -0.44062 | 95 ft | 5 kts | 180° |
| 2026-04-23 10:11 | 51.47325 | -0.44061 | 95 ft | 5 kts | 180° |
| 2026-04-23 10:11 | 51.47286 | -0.44061 | 95 ft | 6 kts | 180° |
| 2026-04-23 10:11 | 51.47240 | -0.44061 | 95 ft | 7 kts | 180° |
| 2026-04-23 10:12 | 51.47188 | -0.44061 | 96 ft | 8 kts | 180° |
| 2026-04-23 10:12 | 51.47131 | -0.44060 | 95 ft | 9 kts | 180° |
| 2026-04-23 10:12 | 51.47067 | -0.44060 | 95 ft | 9 kts | 180° |
| 2026-04-23 10:12 | 51.46999 | -0.44060 | 95 ft | 10 kts | 180° |
| 2026-04-23 10:13 | 51.46937 | -0.44059 | 92 ft | 11 kts | 180° |
| 2026-04-23 10:13 | 51.46860 | -0.44059 | 92 ft | 11 kts | 180° |
| 2026-04-23 10:13 | 51.46781 | -0.44063 | 92 ft | 9 kts | 194° |
| 2026-04-23 10:13 | 51.46762 | -0.44099 | 95 ft | 2 kts | 255° |
| 2026-04-23 10:14 | 51.46756 | -0.44141 | 95 ft | 6 kts | 261° |
| 2026-04-23 10:14 | 51.46752 | -0.44246 | 92 ft | 12 kts | 269° |
| 2026-04-23 10:14 | 51.46753 | -0.44415 | 92 ft | 16 kts | 270° |
| 2026-04-23 10:14 | 51.46753 | -0.44589 | 92 ft | 16 kts | 270° |
| 2026-04-23 10:15 | 51.46752 | -0.44772 | 92 ft | 17 kts | 269° |
| 2026-04-23 10:15 | 51.46751 | -0.44964 | 92 ft | 18 kts | 269° |
| 2026-04-23 10:15 | 51.46750 | -0.45136 | 92 ft | 16 kts | 270° |
| 2026-04-23 10:15 | 51.46750 | -0.45320 | 92 ft | 17 kts | 270° |
| 2026-04-23 10:16 | 51.46750 | -0.45510 | 92 ft | 18 kts | 270° |
| 2026-04-23 10:16 | 51.46749 | -0.45711 | 94 ft | 18 kts | 270° |
| 2026-04-23 10:16 | 51.46748 | -0.45917 | 95 ft | 19 kts | 270° |
| 2026-04-23 10:16 | 51.46747 | -0.46128 | 95 ft | 19 kts | 269° |
| 2026-04-23 10:17 | 51.46747 | -0.46346 | 96 ft | 20 kts | 271° |
| 2026-04-23 10:17 | 51.46748 | -0.46563 | 95 ft | 19 kts | 269° |
| 2026-04-23 10:17 | 51.46747 | -0.46779 | 95 ft | 20 kts | 269° |
| 2026-04-23 10:17 | 51.46746 | -0.47002 | 95 ft | 20 kts | 269° |
| 2026-04-23 10:18 | 51.46745 | -0.47232 | 92 ft | 21 kts | 270° |
| 2026-04-23 10:18 | 51.46745 | -0.47468 | 93 ft | 21 kts | 269° |
| 2026-04-23 10:18 | 51.46744 | -0.47709 | 92 ft | 22 kts | 270° |
| 2026-04-23 10:18 | 51.46743 | -0.47955 | 94 ft | 22 kts | 270° |
| 2026-04-23 10:19 | 51.46743 | -0.48200 | 92 ft | 20 kts | 269° |
| 2026-04-23 10:19 | 51.46738 | -0.48414 | 92 ft | 18 kts | 255° |
| 2026-04-23 10:19 | 51.46666 | -0.48466 | 94 ft | 11 kts | 181° |
| 2026-04-23 10:19 | 51.46588 | -0.48470 | 93 ft | 11 kts | 182° |
| 2026-04-23 10:20 | 51.46513 | -0.48473 | 94 ft | 10 kts | 179° |
| 2026-04-23 10:20 | 51.46487 | -0.48447 | 94 ft | 3 kts | 121° |
| 2026-04-23 10:20 | 51.46479 | -0.48370 | 96 ft | 11 kts | 91° |
| 2026-04-23 10:20 | 51.46479 | -0.48357 | 95 ft | 0 kts | 91° |
| 2026-04-23 10:21 | 51.46479 | -0.48331 | 95 ft | 7 kts | 91° |
| 2026-04-23 10:21 | 51.46478 | -0.48134 | 93 ft | 38 kts | 90° |
| 2026-04-23 10:22 | 51.46480 | -0.47365 | 92 ft | 99 kts | 90° |
| 2026-04-23 10:22 | 51.46485 | -0.45967 | 95 ft | 151 kts | 90° |
| 2026-04-23 10:22 | 51.46489 | -0.44093 | 389 ft | 178 kts | 88° |
| 2026-04-23 10:22 | 51.46510 | -0.42042 | 1300 ft | 183 kts | 92° |
| 2026-04-23 10:23 | 51.46050 | -0.40228 | 2519 ft | 178 kts | 120° |
| 2026-04-23 10:23 | 51.45003 | -0.38865 | 2763 ft | 219 kts | 154° |
| 2026-04-23 10:23 | 51.43398 | -0.38782 | 3355 ft | 245 kts | 192° |
| 2026-04-23 10:23 | 51.41989 | -0.40343 | 4331 ft | 257 kts | 223° |
| 2026-04-23 10:24 | 51.40889 | -0.42774 | 4849 ft | 278 kts | 235° |
| 2026-04-23 10:24 | 51.40151 | -0.45657 | 5798 ft | 286 kts | 262° |
| 2026-04-23 10:24 | 51.40248 | -0.48921 | 6407 ft | 303 kts | 280° |
| 2026-04-23 10:24 | 51.40787 | -0.52197 | 6445 ft | 302 kts | 286° |
| 2026-04-23 10:25 | 51.41344 | -0.55397 | 6442 ft | 296 kts | 283° |
| 2026-04-23 10:25 | 51.41756 | -0.58615 | 6440 ft | 294 kts | 279° |
| 2026-04-23 10:25 | 51.42102 | -0.61848 | 6438 ft | 295 kts | 279° |
| 2026-04-23 10:25 | 51.42484 | -0.65070 | 6459 ft | 295 kts | 280° |
| 2026-04-23 10:26 | 51.42890 | -0.68278 | 6449 ft | 293 kts | 280° |
| 2026-04-23 10:26 | 51.43285 | -0.71496 | 6444 ft | 294 kts | 280° |
| 2026-04-23 10:26 | 51.43673 | -0.74716 | 6450 ft | 295 kts | 280° |
| 2026-04-23 10:26 | 51.44064 | -0.77943 | 6447 ft | 295 kts | 280° |
| 2026-04-23 10:27 | 51.44462 | -0.81178 | 6446 ft | 296 kts | 280° |
| 2026-04-23 10:27 | 51.44896 | -0.84385 | 6421 ft | 294 kts | 289° |
| 2026-04-23 10:27 | 51.46072 | -0.86999 | 6461 ft | 293 kts | 327° |
| 2026-04-23 10:27 | 51.47921 | -0.88153 | 6466 ft | 285 kts | 2° |
| 2026-04-23 10:28 | 51.49800 | -0.87516 | 6422 ft | 274 kts | 36° |
| 2026-04-23 10:28 | 51.51062 | -0.85409 | 6365 ft | 260 kts | 66° |
| 2026-04-23 10:28 | 51.51839 | -0.82811 | 6238 ft | 259 kts | 61° |
| 2026-04-23 10:28 | 51.53232 | -0.80900 | 6215 ft | 274 kts | 32° |
| 2026-04-23 10:29 | 51.55042 | -0.80008 | 7270 ft | 275 kts | 9° |
| 2026-04-23 10:29 | 51.56982 | -0.80353 | 8097 ft | 290 kts | 343° |
| 2026-04-23 10:29 | 51.58720 | -0.82045 | 8979 ft | 298 kts | 315° |
| 2026-04-23 10:29 | 51.59853 | -0.84830 | 9844 ft | 302 kts | 288° |
| 2026-04-23 10:30 | 51.60135 | -0.88196 | 10408 ft | 314 kts | 258° |
| 2026-04-23 10:30 | 51.59414 | -0.91577 | 10717 ft | 331 kts | 240° |
| 2026-04-23 10:30 | 51.58293 | -0.94931 | 11066 ft | 348 kts | 237° |
| 2026-04-23 10:30 | 51.57081 | -0.98333 | 11937 ft | 351 kts | 238° |
| 2026-04-23 10:31 | 51.55916 | -1.01796 | 12708 ft | 357 kts | 239° |
| 2026-04-23 10:31 | 51.54884 | -1.04955 | 13408 ft | 362 kts | 239° |
| 2026-04-23 10:31 | 51.53702 | -1.08509 | 14177 ft | 367 kts | 239° |
| 2026-04-23 10:31 | 51.51223 | -1.16238 | 15630 ft | 377 kts | 251° |
| 2026-04-23 10:32 | 51.54870 | -1.30983 | 18473 ft | 383 kts | 321° |
| 2026-04-23 10:32 | 51.62245 | -1.43292 | 21140 ft | 388 kts | 300° |
| 2026-04-23 10:32 | 51.67237 | -1.58878 | 23381 ft | 395 kts | 301° |
| 2026-04-23 10:32 | 51.71046 | -1.73642 | 25028 ft | 407 kts | 278° |
| 2026-04-23 10:33 | 51.72136 | -1.91988 | 26594 ft | 414 kts | 280° |
| 2026-04-23 10:33 | 51.73432 | -2.10608 | 28049 ft | 421 kts | 279° |
| 2026-04-23 10:33 | 51.74733 | -2.29504 | 29393 ft | 429 kts | 278° |
| 2026-04-23 10:33 | 51.76036 | -2.48879 | 30604 ft | 436 kts | 278° |
| 2026-04-23 10:34 | 51.77321 | -2.68486 | 31677 ft | 442 kts | 277° |
| 2026-04-23 10:34 | 51.78590 | -2.88378 | 32648 ft | 448 kts | 277° |
| 2026-04-23 10:34 | 51.79840 | -3.08533 | 33499 ft | 453 kts | 277° |
| 2026-04-23 10:34 | 51.81067 | -3.28886 | 34254 ft | 458 kts | 276° |
| 2026-04-23 10:35 | 51.82272 | -3.49469 | 34840 ft | 463 kts | 276° |
| 2026-04-23 10:35 | 51.84650 | -3.69875 | 35576 ft | 461 kts | 281° |
| 2026-04-23 10:35 | 51.87226 | -3.90190 | 36293 ft | 462 kts | 282° |
| 2026-04-23 10:35 | 51.89806 | -4.10677 | 36390 ft | 464 kts | 281° |
| 2026-04-23 10:36 | 51.98339 | -4.80482 | 36275 ft | 465 kts | 280° |
| 2026-04-23 10:36 | 52.02264 | -5.13858 | 36394 ft | 464 kts | 279° |
| 2026-04-23 10:36 | 52.05896 | -5.33947 | 36399 ft | 466 kts | 286° |
| 2026-04-23 10:37 | 52.13877 | -5.74154 | 36395 ft | 469 kts | 286° |
| 2026-04-23 10:37 | 52.16245 | -5.94860 | 36398 ft | 467 kts | 270° |
| 2026-04-23 10:37 | 52.16994 | -6.15984 | 36396 ft | 468 kts | 270° |
| 2026-04-23 10:38 | 52.18357 | -6.58410 | 36388 ft | 470 kts | 270° |
| 2026-04-23 10:38 | 52.19382 | -6.93894 | 36380 ft | 473 kts | 270° |
| 2026-04-23 10:39 | 52.20656 | -7.44071 | 36361 ft | 475 kts | 269° |
| 2026-04-23 10:39 | 52.21431 | -7.79848 | 36342 ft | 476 kts | 269° |
| 2026-04-23 10:40 | 52.22229 | -8.23135 | 36319 ft | 479 kts | 268° |
| 2026-04-23 10:40 | 52.22872 | -8.66627 | 36299 ft | 481 kts | 269° |
| 2026-04-23 10:41 | 52.25533 | -9.10308 | 36281 ft | 484 kts | 272° |
| 2026-04-23 10:41 | 52.28337 | -9.54128 | 36274 ft | 486 kts | 272° |
| 2026-04-23 10:42 | 52.31022 | -9.98147 | 36270 ft | 487 kts | 272° |
| 2026-04-23 10:42 | 52.33551 | -10.42260 | 36263 ft | 488 kts | 272° |
| 2026-04-23 10:43 | 52.35924 | -10.86587 | 36248 ft | 490 kts | 271° |
| 2026-04-23 10:43 | 52.38141 | -11.31154 | 36244 ft | 493 kts | 271° |
| 2026-04-23 10:44 | 52.40200 | -11.75983 | 36236 ft | 495 kts | 270° |
| 2026-04-23 10:44 | 52.42099 | -12.21124 | 36222 ft | 498 kts | 270° |
| 2026-04-23 10:45 | 52.43825 | -12.66245 | 36210 ft | 500 kts | 269° |
| 2026-04-23 10:45 | 52.45395 | -13.11890 | 36196 ft | 503 kts | 269° |
| 2026-04-23 10:46 | 52.46795 | -13.57798 | 36168 ft | 505 kts | 269° |
| 2026-04-23 10:46 | 52.48699 | -14.33079 | 35996 ft | 510 kts | 268° |
| 2026-04-23 10:47 | 52.51616 | -15.17991 | 36253 ft | 515 kts | 282° |
| 2026-04-23 10:47 | 52.55681 | -15.47689 | 36109 ft | 514 kts | 276° |
| 2026-04-23 10:47 | 52.60970 | -15.94186 | 36213 ft | 517 kts | 279° |
| 2026-04-23 10:48 | 52.71498 | -16.87590 | 37064 ft | 516 kts | 277° |
| 2026-04-23 10:48 | 52.76207 | -17.34578 | 38194 ft | 515 kts | 276° |
| 2026-04-23 10:48 | 52.80762 | -17.81584 | 38188 ft | 514 kts | 279° |
| 2026-04-23 10:49 | 52.85373 | -18.28517 | 37924 ft | 520 kts | 280° |
| 2026-04-23 10:49 | 52.89726 | -18.75423 | 38255 ft | 512 kts | 277° |
| 2026-04-23 10:49 | 52.93649 | -19.22403 | 37947 ft | 514 kts | 276° |
| 2026-04-23 10:49 | 52.97448 | -19.69319 | 37923 ft | 516 kts | 278° |
| 2026-04-23 10:50 | 53.01459 | -20.16351 | 38076 ft | 508 kts | 281° |
| 2026-04-23 10:50 | 53.05811 | -20.63152 | 37937 ft | 515 kts | 278° |
| 2026-04-23 10:50 | 53.13409 | -21.57020 | 38138 ft | 508 kts | 277° |
| 2026-04-23 10:51 | 53.17104 | -22.04105 | 37807 ft | 514 kts | 279° |
| 2026-04-23 10:51 | 53.20729 | -22.51225 | 37804 ft | 517 kts | 276° |
| 2026-04-23 10:51 | 53.23908 | -22.98521 | 38120 ft | 509 kts | 274° |
| 2026-04-23 10:51 | 53.26793 | -23.45829 | 37817 ft | 513 kts | 277° |
| 2026-04-23 10:52 | 53.32608 | -24.40287 | 38037 ft | 508 kts | 275° |
| 2026-04-23 10:52 | 53.34976 | -24.87537 | 37897 ft | 506 kts | 272° |
| 2026-04-23 10:52 | 53.37159 | -25.34579 | 37669 ft | 511 kts | 276° |
| 2026-04-23 10:53 | 53.39460 | -25.81562 | 38008 ft | 504 kts | 276° |
| 2026-04-23 10:53 | 53.41436 | -26.28563 | 37853 ft | 504 kts | 272° |
| 2026-04-23 10:53 | 53.42962 | -26.75508 | 37727 ft | 508 kts | 273° |
| 2026-04-23 10:53 | 53.44532 | -27.22489 | 38080 ft | 499 kts | 275° |
| 2026-04-23 10:54 | 53.46077 | -27.69408 | 37856 ft | 501 kts | 273° |
| 2026-04-23 10:54 | 53.47169 | -28.15482 | 37781 ft | 505 kts | 271° |
| 2026-04-23 10:54 | 53.48019 | -28.62241 | 38067 ft | 498 kts | 273° |
| 2026-04-23 10:54 | 53.48981 | -29.09158 | 37953 ft | 500 kts | 275° |
| 2026-04-23 10:55 | 53.49707 | -29.56202 | 37713 ft | 509 kts | 271° |
| 2026-04-23 10:55 | 53.49938 | -30.03158 | 37790 ft | 505 kts | 270° |
| 2026-04-23 10:55 | 53.49482 | -30.50080 | 38098 ft | 498 kts | 272° |
| 2026-04-23 10:55 | 53.48911 | -30.96912 | 38128 ft | 499 kts | 270° |
| 2026-04-23 10:56 | 53.47977 | -31.43758 | 37985 ft | 501 kts | 270° |
| 2026-04-23 10:56 | 53.46954 | -31.90537 | 37805 ft | 504 kts | 272° |
| 2026-04-23 10:56 | 53.44355 | -32.84255 | 38056 ft | 504 kts | 269° |
| 2026-04-23 10:57 | 53.42775 | -33.30977 | 38226 ft | 496 kts | 272° |
| 2026-04-23 10:57 | 53.41172 | -33.77713 | 38166 ft | 499 kts | 270° |
| 2026-04-23 10:57 | 53.36943 | -34.70536 | 37931 ft | 499 kts | 272° |
| 2026-04-23 10:58 | 53.32345 | -35.63108 | 37983 ft | 505 kts | 266° |
| 2026-04-23 10:58 | 53.29542 | -36.09321 | 38139 ft | 499 kts | 269° |
| 2026-04-23 10:58 | 53.26860 | -36.55457 | 38224 ft | 494 kts | 270° |
| 2026-04-23 10:59 | 53.20628 | -37.47242 | 38288 ft | 495 kts | 266° |
| 2026-04-23 10:59 | 53.17280 | -37.92807 | 38183 ft | 489 kts | 269° |
| 2026-04-23 10:59 | 53.14000 | -38.38146 | 38126 ft | 493 kts | 267° |
| 2026-04-23 11:00 | 53.06333 | -39.28111 | 38018 ft | 489 kts | 268° |
| 2026-04-23 11:00 | 52.97889 | -40.16462 | 38026 ft | 497 kts | 257° |
| 2026-04-23 11:01 | 52.83946 | -41.03268 | 37996 ft | 492 kts | 258° |
| 2026-04-23 11:01 | 52.70009 | -41.89229 | 38072 ft | 485 kts | 259° |
| 2026-04-23 11:02 | 52.55150 | -42.74070 | 38013 ft | 482 kts | 259° |
| 2026-04-23 11:02 | 52.40110 | -43.57945 | 38005 ft | 483 kts | 254° |
| 2026-04-23 11:03 | 52.24638 | -44.40248 | 38059 ft | 472 kts | 255° |
| 2026-04-23 11:03 | 52.16628 | -44.80743 | 38173 ft | 467 kts | 253° |
| 2026-04-23 11:03 | 52.08585 | -45.20945 | 38281 ft | 462 kts | 255° |
| 2026-04-23 11:04 | 51.92298 | -46.00240 | 38076 ft | 461 kts | 252° |
| 2026-04-23 11:04 | 51.75634 | -46.78627 | 37955 ft | 465 kts | 251° |
| 2026-04-23 11:05 | 51.66962 | -47.17698 | 38110 ft | 461 kts | 251° |
| 2026-04-23 11:05 | 51.58312 | -47.56520 | 38233 ft | 457 kts | 250° |
| 2026-04-23 11:05 | 51.40535 | -48.33526 | 37976 ft | 462 kts | 248° |
| 2026-04-23 11:06 | 51.21964 | -49.11752 | 37874 ft | 486 kts | 247° |
| 2026-04-23 11:06 | 51.12005 | -49.51829 | 37860 ft | 491 kts | 247° |
| 2026-04-23 11:07 | 50.92138 | -50.32953 | 37780 ft | 499 kts | 246° |
| 2026-04-23 11:07 | 50.71879 | -51.14602 | 37781 ft | 504 kts | 246° |
| 2026-04-23 11:08 | 50.50977 | -51.96079 | 37824 ft | 500 kts | 242° |
| 2026-04-23 11:08 | 50.38024 | -52.34070 | 37925 ft | 495 kts | 238° |
| 2026-04-23 11:08 | 50.24972 | -52.71738 | 37990 ft | 490 kts | 238° |
| 2026-04-23 11:09 | 49.98652 | -53.44642 | 37932 ft | 486 kts | 232° |
| 2026-04-23 11:09 | 49.71422 | -54.18417 | 37911 ft | 494 kts | 236° |
| 2026-04-23 11:10 | 49.43650 | -54.90878 | 37755 ft | 491 kts | 232° |
| 2026-04-23 11:10 | 49.15745 | -55.62875 | 37787 ft | 489 kts | 232° |
| 2026-04-23 11:10 | 49.01428 | -55.98392 | 37925 ft | 487 kts | 230° |
| 2026-04-23 11:11 | 48.86851 | -56.33934 | 37968 ft | 499 kts | 233° |
| 2026-04-23 11:11 | 48.57686 | -57.05326 | 37992 ft | 493 kts | 231° |
| 2026-04-23 11:12 | 48.27798 | -57.75153 | 37947 ft | 504 kts | 234° |
| 2026-04-23 11:12 | 48.12769 | -58.10536 | 37793 ft | 506 kts | 233° |
| 2026-04-23 11:12 | 47.97503 | -58.45261 | 37825 ft | 501 kts | 230° |
| 2026-04-23 11:12 | 47.82002 | -58.79638 | 37931 ft | 504 kts | 233° |
| 2026-04-23 11:13 | 47.66636 | -59.14182 | 38104 ft | 499 kts | 236° |
| 2026-04-23 11:13 | 47.35532 | -59.81996 | 38091 ft | 496 kts | 232° |
| 2026-04-23 11:13 | 47.19846 | -60.15643 | 37911 ft | 502 kts | 236° |
| 2026-04-23 11:14 | 47.04267 | -60.49197 | 37932 ft | 498 kts | 232° |
| 2026-04-23 11:14 | 46.88345 | -60.82135 | 38148 ft | 494 kts | 231° |
| 2026-04-23 11:14 | 46.72405 | -61.14919 | 38210 ft | 492 kts | 235° |
| 2026-04-23 11:14 | 46.56678 | -61.47616 | 37967 ft | 496 kts | 234° |
| 2026-04-23 11:15 | 46.40628 | -61.79845 | 37946 ft | 494 kts | 231° |
| 2026-04-23 11:15 | 46.24468 | -62.11780 | 38094 ft | 490 kts | 235° |
| 2026-04-23 11:15 | 46.08523 | -62.43752 | 38229 ft | 488 kts | 235° |
| 2026-04-23 11:15 | 45.92298 | -62.75369 | 38099 ft | 490 kts | 232° |
| 2026-04-23 11:16 | 45.75933 | -63.06603 | 37946 ft | 493 kts | 235° |
| 2026-04-23 11:16 | 45.43346 | -63.68820 | 38246 ft | 486 kts | 232° |
| 2026-04-23 11:16 | 45.26856 | -63.99385 | 38124 ft | 486 kts | 236° |
| 2026-04-23 11:17 | 45.10560 | -64.30034 | 37981 ft | 490 kts | 234° |
| 2026-04-23 11:17 | 44.82101 | -64.81544 | 38026 ft | 488 kts | 233° |
| 2026-04-23 11:18 | 44.65502 | -65.11458 | 38029 ft | 486 kts | 234° |
| 2026-04-23 11:18 | 44.48745 | -65.41258 | 38016 ft | 485 kts | 234° |
| 2026-04-23 11:19 | 44.31966 | -65.70788 | 38010 ft | 485 kts | 234° |
| 2026-04-23 11:19 | 44.15234 | -65.99939 | 38006 ft | 484 kts | 234° |
| 2026-04-23 11:20 | 43.98314 | -66.29121 | 37999 ft | 484 kts | 234° |
| 2026-04-23 11:20 | 43.81332 | -66.58116 | 37990 ft | 484 kts | 234° |
| 2026-04-23 11:21 | 43.64311 | -66.86890 | 37997 ft | 483 kts | 234° |
| 2026-04-23 11:21 | 43.56127 | -67.01461 | 38033 ft | 473 kts | 249° |
| 2026-04-23 11:21 | 43.51383 | -67.18330 | 37992 ft | 473 kts | 251° |
| 2026-04-23 11:22 | 43.41824 | -67.52057 | 37981 ft | 472 kts | 252° |
| 2026-04-23 11:22 | 43.32194 | -67.85613 | 37964 ft | 472 kts | 253° |
| 2026-04-23 11:23 | 43.22482 | -68.19018 | 37957 ft | 471 kts | 253° |
| 2026-04-23 11:23 | 43.12705 | -68.52210 | 37960 ft | 468 kts | 253° |
| 2026-04-23 11:24 | 43.02885 | -68.85123 | 37955 ft | 466 kts | 253° |
| 2026-04-23 11:24 | 42.93010 | -69.17801 | 37954 ft | 466 kts | 253° |
| 2026-04-23 11:25 | 42.83015 | -69.50460 | 37953 ft | 467 kts | 253° |
| 2026-04-23 11:25 | 42.72929 | -69.83013 | 37950 ft | 467 kts | 253° |
| 2026-04-23 11:26 | 42.62706 | -70.15490 | 37959 ft | 468 kts | 253° |
| 2026-04-23 11:26 | 42.52525 | -70.47296 | 37959 ft | 469 kts | 253° |
| 2026-04-23 11:27 | 42.42060 | -70.79623 | 37966 ft | 468 kts | 254° |
| 2026-04-23 11:27 | 42.32661 | -71.12076 | 37986 ft | 460 kts | 259° |
| 2026-04-23 11:28 | 42.24826 | -71.44739 | 37978 ft | 455 kts | 260° |
| 2026-04-23 11:28 | 42.16965 | -71.77122 | 37959 ft | 453 kts | 260° |
| 2026-04-23 11:29 | 42.09104 | -72.09066 | 37974 ft | 452 kts | 260° |
| 2026-04-23 11:29 | 42.01115 | -72.41094 | 37984 ft | 451 kts | 259° |
| 2026-04-23 11:30 | 41.93402 | -72.71620 | 38013 ft | 450 kts | 261° |
| 2026-04-23 11:30 | 41.87035 | -72.98488 | 38006 ft | 452 kts | 260° |
| 2026-04-23 11:30 | 41.83240 | -73.14204 | 36272 ft | 436 kts | 262° |
| 2026-04-23 11:31 | 41.79530 | -73.29484 | 34255 ft | 425 kts | 265° |
| 2026-04-23 11:31 | 41.75915 | -73.44284 | 32260 ft | 411 kts | 264° |
| 2026-04-23 11:31 | 41.72412 | -73.58537 | 30428 ft | 395 kts | 264° |
| 2026-04-23 11:31 | 41.69084 | -73.71991 | 28657 ft | 376 kts | 264° |
| 2026-04-23 11:32 | 41.66006 | -73.84382 | 27443 ft | 350 kts | 264° |
| 2026-04-23 11:32 | 41.63076 | -73.96915 | 26191 ft | 362 kts | 263° |
| 2026-04-23 11:32 | 41.62011 | -74.01348 | 25612 ft | 354 kts | 263° |
| 2026-04-23 11:32 | 41.61279 | -74.04464 | 25168 ft | 351 kts | 263° |
| 2026-04-23 11:33 | 41.60544 | -74.07573 | 24741 ft | 348 kts | 262° |
| 2026-04-23 11:33 | 41.59809 | -74.10644 | 24294 ft | 345 kts | 262° |
| 2026-04-23 11:33 | 41.59082 | -74.13684 | 23857 ft | 342 kts | 262° |
| 2026-04-23 11:33 | 41.58362 | -74.16698 | 23416 ft | 339 kts | 261° |
| 2026-04-23 11:34 | 41.57647 | -74.19685 | 22907 ft | 336 kts | 261° |
| 2026-04-23 11:34 | 41.56938 | -74.22645 | 22400 ft | 334 kts | 261° |
| 2026-04-23 11:34 | 41.56233 | -74.25585 | 21906 ft | 331 kts | 261° |
| 2026-04-23 11:34 | 41.55368 | -74.28430 | 21550 ft | 334 kts | 251° |
| 2026-04-23 11:35 | 41.54071 | -74.31028 | 21188 ft | 342 kts | 239° |
| 2026-04-23 11:35 | 41.52337 | -74.33291 | 20818 ft | 356 kts | 227° |
| 2026-04-23 11:35 | 41.50195 | -74.35069 | 20452 ft | 371 kts | 213° |
| 2026-04-23 11:35 | 41.47749 | -74.36263 | 20065 ft | 374 kts | 206° |
| 2026-04-23 11:36 | 41.45290 | -74.37324 | 19652 ft | 370 kts | 206° |
| 2026-04-23 11:36 | 41.42845 | -74.38374 | 19261 ft | 369 kts | 206° |
| 2026-04-23 11:36 | 41.40412 | -74.39422 | 19048 ft | 364 kts | 207° |
| 2026-04-23 11:36 | 41.38008 | -74.40456 | 19048 ft | 364 kts | 207° |
| 2026-04-23 11:37 | 41.35575 | -74.41510 | 19050 ft | 370 kts | 206° |
| 2026-04-23 11:37 | 41.33127 | -74.42559 | 18941 ft | 367 kts | 206° |
| 2026-04-23 11:37 | 41.30685 | -74.43603 | 18358 ft | 369 kts | 206° |
| 2026-04-23 11:37 | 41.28253 | -74.44645 | 17896 ft | 365 kts | 206° |
| 2026-04-23 11:38 | 41.25844 | -74.45678 | 17396 ft | 362 kts | 206° |
| 2026-04-23 11:38 | 41.23463 | -74.46696 | 17018 ft | 356 kts | 206° |
| 2026-04-23 11:38 | 41.21138 | -74.47687 | 17011 ft | 348 kts | 206° |
| 2026-04-23 11:38 | 41.18819 | -74.48686 | 17020 ft | 354 kts | 206° |
| 2026-04-23 11:39 | 41.16476 | -74.49692 | 16796 ft | 353 kts | 206° |
| 2026-04-23 11:39 | 41.15909 | -74.49933 | 16627 ft | 354 kts | 206° |
| 2026-04-23 11:39 | 41.13531 | -74.50942 | 16129 ft | 352 kts | 205° |
| 2026-04-23 11:39 | 41.11240 | -74.51915 | 15625 ft | 349 kts | 205° |
| 2026-04-23 11:40 | 41.08912 | -74.52909 | 15209 ft | 344 kts | 205° |
| 2026-04-23 11:40 | 41.06622 | -74.53802 | 14712 ft | 346 kts | 196° |
| 2026-04-23 11:40 | 41.04197 | -74.54015 | 14213 ft | 349 kts | 190° |
| 2026-04-23 11:40 | 41.01800 | -74.54262 | 13776 ft | 343 kts | 191° |
| 2026-04-23 11:41 | 40.99463 | -74.54519 | 13293 ft | 340 kts | 191° |
| 2026-04-23 11:41 | 40.97112 | -74.54734 | 12821 ft | 337 kts | 190° |
| 2026-04-23 11:41 | 40.94821 | -74.54923 | 12400 ft | 318 kts | 190° |
| 2026-04-23 11:41 | 40.92600 | -74.55129 | 11451 ft | 324 kts | 191° |
| 2026-04-23 11:42 | 40.90385 | -74.55345 | 11146 ft | 316 kts | 191° |
| 2026-04-23 11:42 | 40.88190 | -74.55547 | 10663 ft | 316 kts | 190° |
| 2026-04-23 11:42 | 40.86008 | -74.55744 | 10241 ft | 313 kts | 190° |
| 2026-04-23 11:42 | 40.83841 | -74.55942 | 9764 ft | 311 kts | 190° |
| 2026-04-23 11:43 | 40.81675 | -74.55923 | 9250 ft | 313 kts | 181° |
| 2026-04-23 11:43 | 40.79514 | -74.55792 | 8783 ft | 308 kts | 184° |
| 2026-04-23 11:43 | 40.77378 | -74.55721 | 8305 ft | 306 kts | 183° |
| 2026-04-23 11:43 | 40.75262 | -74.55618 | 7861 ft | 303 kts | 182° |
| 2026-04-23 11:44 | 40.73163 | -74.55493 | 7448 ft | 300 kts | 182° |
| 2026-04-23 11:44 | 40.71143 | -74.55376 | 7416 ft | 278 kts | 182° |
| 2026-04-23 11:44 | 40.69255 | -74.55276 | 7400 ft | 269 kts | 183° |
| 2026-04-23 11:44 | 40.67394 | -74.55185 | 7403 ft | 267 kts | 183° |
| 2026-04-23 11:45 | 40.65551 | -74.54894 | 7374 ft | 272 kts | 164° |
| 2026-04-23 11:45 | 40.63898 | -74.53663 | 7390 ft | 274 kts | 149° |
| 2026-04-23 11:45 | 40.62309 | -74.52265 | 7401 ft | 276 kts | 147° |
| 2026-04-23 11:45 | 40.60748 | -74.50864 | 7399 ft | 275 kts | 147° |
| 2026-04-23 11:46 | 40.59154 | -74.49462 | 7396 ft | 275 kts | 148° |
| 2026-04-23 11:46 | 40.57602 | -74.48109 | 7344 ft | 253 kts | 148° |
| 2026-04-23 11:46 | 40.56218 | -74.46897 | 7183 ft | 226 kts | 148° |
| 2026-04-23 11:46 | 40.54956 | -74.45793 | 6838 ft | 214 kts | 148° |
| 2026-04-23 11:47 | 40.53716 | -74.44712 | 6331 ft | 213 kts | 148° |
| 2026-04-23 11:47 | 40.52488 | -74.43640 | 5804 ft | 211 kts | 148° |
| 2026-04-23 11:47 | 40.51276 | -74.42582 | 5310 ft | 208 kts | 147° |
| 2026-04-23 11:47 | 40.50082 | -74.41536 | 4817 ft | 204 kts | 146° |
| 2026-04-23 11:48 | 40.49137 | -74.40204 | 4160 ft | 200 kts | 109° |
| 2026-04-23 11:48 | 40.49013 | -74.38461 | 3741 ft | 187 kts | 75° |
| 2026-04-23 11:48 | 40.49386 | -74.36874 | 3481 ft | 180 kts | 66° |
| 2026-04-23 11:48 | 40.49767 | -74.35314 | 3164 ft | 179 kts | 67° |
| 2026-04-23 11:49 | 40.50134 | -74.33758 | 2844 ft | 177 kts | 68° |
| 2026-04-23 11:49 | 40.50496 | -74.32221 | 2548 ft | 176 kts | 68° |
| 2026-04-23 11:49 | 40.50844 | -74.30728 | 2493 ft | 169 kts | 68° |
| 2026-04-23 11:49 | 40.51201 | -74.29226 | 2515 ft | 175 kts | 68° |
| 2026-04-23 11:50 | 40.51687 | -74.27792 | 2437 ft | 169 kts | 44° |
| 2026-04-23 11:50 | 40.52690 | -74.27144 | 2493 ft | 161 kts | 16° |
| 2026-04-23 11:50 | 40.53687 | -74.26382 | 2509 ft | 167 kts | 28° |
| 2026-04-23 11:50 | 40.54726 | -74.25719 | 2510 ft | 165 kts | 22° |
| 2026-04-23 11:51 | 40.55063 | -74.25504 | 2514 ft | 165 kts | 22° |
| 2026-04-23 11:51 | 40.55935 | -74.24950 | 2488 ft | 164 kts | 22° |
| 2026-04-23 11:51 | 40.56953 | -74.24301 | 2425 ft | 165 kts | 22° |
| 2026-04-23 11:51 | 40.57993 | -74.23641 | 2224 ft | 164 kts | 22° |
| 2026-04-23 11:52 | 40.59025 | -74.22988 | 2002 ft | 165 kts | 22° |
| 2026-04-23 11:52 | 40.60049 | -74.22320 | 1778 ft | 163 kts | 22° |
| 2026-04-23 11:52 | 40.61073 | -74.21671 | 1559 ft | 165 kts | 22° |
| 2026-04-23 11:52 | 40.62024 | -74.21066 | 1358 ft | 161 kts | 22° |
| 2026-04-23 11:53 | 40.62981 | -74.20455 | 1145 ft | 147 kts | 23° |
| 2026-04-23 11:53 | 40.63885 | -74.19882 | 958 ft | 148 kts | 23° |
| 2026-04-23 11:53 | 40.64816 | -74.19292 | 749 ft | 149 kts | 24° |
| 2026-04-23 11:53 | 40.65746 | -74.18696 | 564 ft | 148 kts | 25° |
| 2026-04-23 11:54 | 40.66685 | -74.18106 | 358 ft | 151 kts | 26° |
| 2026-04-23 11:54 | 40.67618 | -74.17510 | 149 ft | 148 kts | 26° |
| 2026-04-23 11:54 | 40.68530 | -74.16926 | 29 ft | 133 kts | 26° |
| 2026-04-23 11:54 | 40.69158 | -74.16535 | 29 ft | 65 kts | 25° |
| 2026-04-23 11:55 | 40.69464 | -74.16456 | 29 ft | 31 kts | 354° |
| 2026-04-23 11:55 | 40.69583 | -74.16476 | 27 ft | 0 kts | 327° |
| 2026-04-23 11:56 | 40.69588 | -74.16482 | 27 ft | 3 kts | 315° |
| 2026-04-23 11:56 | 40.69608 | -74.16522 | 30 ft | 8 kts | 301° |
| 2026-04-23 11:56 | 40.69641 | -74.16600 | 30 ft | 12 kts | 298° |
| 2026-04-23 11:57 | 40.69677 | -74.16716 | 28 ft | 10 kts | 275° |
| 2026-04-23 11:57 | 40.69663 | -74.16754 | 27 ft | 2 kts | 211° |
| 2026-04-23 11:57 | 40.69627 | -74.16781 | 30 ft | 11 kts | 210° |
| 2026-04-23 11:57 | 40.69537 | -74.16837 | 29 ft | 16 kts | 205° |
| 2026-04-23 11:58 | 40.69428 | -74.16905 | 27 ft | 18 kts | 207° |
| 2026-04-23 11:58 | 40.69305 | -74.16985 | 26 ft | 22 kts | 206° |
| 2026-04-23 11:58 | 40.69264 | -74.17012 | 27 ft | 23 kts | 206° |
| 2026-04-23 11:58 | 40.69146 | -74.17086 | 26 ft | 23 kts | 206° |
| 2026-04-23 11:59 | 40.69001 | -74.17177 | 24 ft | 21 kts | 205° |
| 2026-04-23 11:59 | 40.68892 | -74.17253 | 28 ft | 9 kts | 230° |
| 2026-04-23 11:59 | 40.68890 | -74.17271 | 28 ft | 1 kts | 279° |
| 2026-04-23 11:59 | 40.68906 | -74.17312 | 30 ft | 8 kts | 306° |
| 2026-04-23 12:00 | 40.68912 | -74.17324 | 29 ft | 2 kts | 294° |
| 2026-04-23 12:00 | 40.68923 | -74.17338 | 30 ft | 5 kts | 320° |
| 2026-04-23 12:00 | 40.68954 | -74.17355 | 29 ft | 7 kts | 330° |
| 2026-04-23 12:00 | 40.68975 | -74.17397 | 26 ft | 8 kts | 294° |
| 2026-04-23 12:01 | 40.68988 | -74.17449 | 29 ft | 4 kts | 286° |
| 2026-04-23 12:01 | 40.68990 | -74.17459 | 27 ft | 0 kts | 286° |
| 2026-04-23 12:01 | 40.68991 | -74.17463 | 27 ft | 0 kts | 285° |